KISM

Kissimmee Gateway Airport

Orlando, Florida, USA
METAR KISM 151856Z VRB04KT 10SM CLR 24/12 A2997 RMK AO2 SLP149 T02440122 PNO $
Observed Flight Rules
Feb-15 @ 18:56 UTC (52 minutes ago) Visual Flight Rules
Wind Visibility Clouds
Variable at 4 knots 10 miles
  • Clear skies
Temperatures Readings
Current 24°C / 75°F
Dewpoint 12°C / 54°F
Humidity 47%
Altimeter 29.97" Hg
Pressure 1014.9 hPa
Elevation 25
METAR KISM 151856Z VRB04KT 10SM CLR 24/12 A2997 RMK AO2 SLP149 T02440122 PNO $
Observed Flight Rules
Feb-15 @ 18:56 UTC
(52 minutes ago)
VFR
Wind Visibility
Variable at 4 knots 10 miles
Clouds
  • Clear skies
Temperature Dewpoint
24°C / 75°F 12°C / 54°F
Humidity Altimeter Pressure
47% 29.97" Hg 1014.9 hPa